Time;durP1;ratioP1;P1;durP2;ratioP2;P2;SDS_P1;SDS_P2;PMS_P1;PMS_P2;Temp;Humidity;BMP_temperature;BMP_pressure;BME280_temperature;BME280_humidity;BME280_pressure;Samples;Min_cycle;Max_cycle;Signal;HPM_P1;HPM_P2
2022/10/10 00:00:33;;;;;;;;;;;13.80;99.90;;;;;;5074932;28;19954;-65
2022/10/10 00:02:59;;;;;;;;;;;13.90;99.90;;;;;;5074956;28;19904;-66
2022/10/10 00:05:25;;;;;;;;;;;13.80;99.90;;;;;;5075207;28;20363;-66
2022/10/10 00:07:50;;;;;;;;;;;13.80;99.90;;;;;;5074587;28;19911;-66
2022/10/10 00:10:16;;;;;;;;;;;13.80;99.90;;;;;;5073832;28;19905;-65
2022/10/10 00:12:41;;;;;;;;;;;13.80;99.90;;;;;;5074637;28;19909;-66
2022/10/10 00:15:07;;;;;;;;;;;13.80;99.90;;;;;;5075037;28;20363;-66
2022/10/10 00:17:33;;;;;;;;;;;13.90;99.90;;;;;;5074474;28;20329;-66
2022/10/10 00:19:58;;;;;;;;;;;13.90;99.90;;;;;;5074518;28;19912;-66
2022/10/10 00:22:25;;;;;;;;;;;13.80;99.90;;;;;;5074146;28;19920;-66
2022/10/10 00:24:51;;;;;;;;;;;13.70;99.90;;;;;;5074429;28;19905;-66
2022/10/10 00:27:16;;;;;;;;;;;13.80;99.90;;;;;;5074856;28;19904;-66
2022/10/10 00:29:42;;;;;;;;;;;13.80;99.90;;;;;;5074487;28;19911;-66
2022/10/10 00:32:07;;;;;;;;;;;13.70;99.90;;;;;;5074376;28;19905;-66
2022/10/10 00:34:33;;;;;;;;;;;13.70;99.90;;;;;;5073856;28;20385;-66
2022/10/10 00:36:58;;;;;;;;;;;13.80;99.90;;;;;;5074346;28;19957;-66
2022/10/10 00:39:24;;;;;;;;;;;13.80;99.90;;;;;;5074582;28;19908;-66
2022/10/10 00:41:49;;;;;;;;;;;13.90;99.90;;;;;;5074349;28;20385;-66
2022/10/10 00:44:15;;;;;;;;;;;13.90;99.90;;;;;;5074143;28;19908;-66
2022/10/10 00:46:41;;;;;;;;;;;13.80;99.90;;;;;;5074097;28;20006;-66
2022/10/10 00:49:20;;;;;;;;;;;13.70;99.90;;;;;;5073806;28;19905;-65
2022/10/10 00:51:47;;;;;;;;;;;13.70;99.90;;;;;;5073978;28;19954;-66
2022/10/10 00:54:15;;;;;;;;;;;13.70;99.90;;;;;;5074247;28;19911;-66
2022/10/10 00:56:46;;;;;;;;;;;13.70;99.90;;;;;;5073969;28;20003;-66
2022/10/10 00:59:12;;;;;;;;;;;13.70;99.90;;;;;;5073908;28;19927;-66
2022/10/10 01:01:39;;;;;;;;;;;13.70;99.90;;;;;;5073750;28;19905;-66
2022/10/10 01:04:04;;;;;;;;;;;13.60;99.90;;;;;;5073564;28;19904;-66
2022/10/10 01:06:31;;;;;;;;;;;13.60;99.90;;;;;;5074021;28;19911;-66
2022/10/10 01:08:57;;;;;;;;;;;13.70;99.90;;;;;;5073779;28;19927;-66
2022/10/10 01:11:32;;;;;;;;;;;13.60;99.90;;;;;;5073881;28;20354;-66
2022/10/10 01:13:58;;;;;;;;;;;13.60;99.90;;;;;;5073801;28;19912;-66
2022/10/10 01:16:32;;;;;;;;;;;13.70;99.90;;;;;;5073311;28;20274;-66
2022/10/10 01:19:19;;;;;;;;;;;13.70;99.90;;;;;;5073967;28;19916;-66
2022/10/10 01:21:50;;;;;;;;;;;13.70;99.90;;;;;;5073338;28;19905;-66
2022/10/10 01:24:15;;;;;;;;;;;13.70;99.90;;;;;;5072085;28;19904;-66
2022/10/10 01:26:56;;;;;;;;;;;13.70;99.90;;;;;;5073243;28;19912;-66
2022/10/10 01:29:21;;;;;;;;;;;13.70;99.90;;;;;;5073542;28;19912;-66
2022/10/10 01:31:50;;;;;;;;;;;13.70;99.90;;;;;;5073084;28;19904;-66
2022/10/10 01:34:15;;;;;;;;;;;13.70;99.90;;;;;;5072906;28;19908;-66
2022/10/10 01:36:52;;;;;;;;;;;13.70;99.90;;;;;;5073439;28;19958;-66
2022/10/10 01:39:25;;;;;;;;;;;13.70;99.90;;;;;;5073092;28;20009;-66
2022/10/10 01:42:00;;;;;;;;;;;13.70;99.90;;;;;;5073048;28;19993;-66
2022/10/10 01:44:26;;;;;;;;;;;13.70;99.90;;;;;;5072843;28;20049;-66
2022/10/10 01:46:51;;;;;;;;;;;13.60;99.90;;;;;;5073292;28;20485;-66
2022/10/10 01:49:18;;;;;;;;;;;13.60;99.90;;;;;;5071323;28;19905;-66
2022/10/10 01:51:44;;;;;;;;;;;13.60;99.90;;;;;;5072919;28;19934;-66
2022/10/10 01:54:31;;;;;;;;;;;13.60;99.90;;;;;;5072835;28;19999;-66
2022/10/10 01:57:10;;;;;;;;;;;13.60;99.90;;;;;;5072765;28;19911;-66
2022/10/10 01:59:38;;;;;;;;;;;13.70;99.90;;;;;;5072967;28;19923;-66
2022/10/10 02:02:25;;;;;;;;;;;13.60;99.90;;;;;;5072477;28;19904;-66
2022/10/10 02:05:00;;;;;;;;;;;13.70;99.90;;;;;;5072497;28;19995;-66
2022/10/10 02:07:29;;;;;;;;;;;13.50;99.90;;;;;;5072691;28;19911;-66
2022/10/10 02:09:56;;;;;;;;;;;13.60;99.90;;;;;;5072637;28;19904;-66
2022/10/10 02:12:22;;;;;;;;;;;13.50;99.90;;;;;;5072543;28;19905;-66
2022/10/10 02:14:50;;;;;;;;;;;13.50;99.90;;;;;;5072504;28;19911;-66
2022/10/10 02:17:16;;;;;;;;;;;13.50;99.90;;;;;;5072286;28;19974;-66
2022/10/10 02:19:43;;;;;;;;;;;13.50;99.90;;;;;;5072672;28;19935;-66
2022/10/10 02:22:09;;;;;;;;;;;13.50;99.90;;;;;;5074317;28;20011;-67
2022/10/10 02:24:35;;;;;;;;;;;13.50;99.90;;;;;;5073544;28;19955;-66
2022/10/10 02:27:04;;;;;;;;;;;13.50;99.90;;;;;;5072502;28;19946;-66
2022/10/10 02:29:32;;;;;;;;;;;13.60;99.90;;;;;;5072315;28;19908;-66
2022/10/10 02:32:02;;;;;;;;;;;13.60;99.90;;;;;;5072418;28;20003;-66
2022/10/10 02:34:31;;;;;;;;;;;13.50;99.90;;;;;;5071965;28;19911;-66
2022/10/10 02:36:58;;;;;;;;;;;13.40;99.90;;;;;;5072362;28;19911;-66
2022/10/10 02:39:26;;;;;;;;;;;13.40;99.90;;;;;;5072275;28;19916;-66
2022/10/10 02:41:52;;;;;;;;;;;13.50;99.90;;;;;;5072400;28;20365;-67
2022/10/10 02:44:18;;;;;;;;;;;13.50;99.90;;;;;;5072548;28;19949;-67
2022/10/10 02:46:44;;;;;;;;;;;13.50;99.90;;;;;;5071871;28;19909;-66
2022/10/10 02:49:10;;;;;;;;;;;13.50;99.90;;;;;;5072388;28;20276;-66
2022/10/10 02:51:35;;;;;;;;;;;13.50;99.90;;;;;;5072641;28;19911;-67
2022/10/10 02:54:01;;;;;;;;;;;13.50;99.90;;;;;;5072135;28;20370;-66
2022/10/10 02:56:27;;;;;;;;;;;13.50;99.90;;;;;;5072207;28;19905;-66
2022/10/10 02:58:53;;;;;;;;;;;13.50;99.90;;;;;;5071986;28;19919;-66
2022/10/10 03:01:18;;;;;;;;;;;13.50;99.90;;;;;;5070867;28;20462;-67
2022/10/10 03:03:44;;;;;;;;;;;13.50;99.90;;;;;;5072209;28;20281;-66
2022/10/10 03:06:09;;;;;;;;;;;13.60;99.90;;;;;;5072096;28;19904;-66
2022/10/10 03:08:38;;;;;;;;;;;13.50;99.90;;;;;;5072065;28;19912;-66
2022/10/10 03:11:04;;;;;;;;;;;13.50;99.90;;;;;;5072362;28;19911;-67
2022/10/10 03:13:29;;;;;;;;;;;13.50;99.90;;;;;;5071866;28;19935;-67
2022/10/10 03:15:55;;;;;;;;;;;13.50;99.90;;;;;;5071567;28;19943;-67
2022/10/10 03:18:20;;;;;;;;;;;13.50;99.90;;;;;;5071790;28;19916;-66
2022/10/10 03:20:49;;;;;;;;;;;13.50;99.90;;;;;;5072173;28;19905;-66
2022/10/10 03:23:15;;;;;;;;;;;13.60;99.90;;;;;;5071997;28;19929;-66
2022/10/10 03:25:41;;;;;;;;;;;13.60;99.90;;;;;;5071993;28;19904;-67
2022/10/10 03:28:07;;;;;;;;;;;13.60;99.90;;;;;;5072255;28;20066;-67
2022/10/10 03:30:33;;;;;;;;;;;13.60;99.90;;;;;;5071769;28;19911;-67
2022/10/10 03:32:59;;;;;;;;;;;13.70;99.90;;;;;;5072215;28;20282;-66
2022/10/10 03:35:26;;;;;;;;;;;13.50;99.90;;;;;;5071831;28;19905;-67
2022/10/10 03:37:51;;;;;;;;;;;13.60;99.90;;;;;;5071714;28;20441;-67
2022/10/10 03:40:17;;;;;;;;;;;13.60;99.90;;;;;;5071792;28;19954;-66
2022/10/10 03:42:42;;;;;;;;;;;13.70;99.90;;;;;;5072071;28;20266;-66
2022/10/10 03:45:08;;;;;;;;;;;13.70;99.90;;;;;;5071569;28;20271;-66
2022/10/10 03:47:34;;;;;;;;;;;13.70;99.90;;;;;;5075264;28;19987;-67
2022/10/10 03:49:59;;;;;;;;;;;13.70;99.90;;;;;;5075209;28;19912;-67
2022/10/10 03:52:25;;;;;;;;;;;13.60;99.90;;;;;;5075179;28;19910;-67
2022/10/10 03:54:50;;;;;;;;;;;13.60;99.90;;;;;;5075276;28;19919;-67
2022/10/10 03:57:16;;;;;;;;;;;13.60;99.90;;;;;;5075266;28;19904;-67
2022/10/10 03:59:41;;;;;;;;;;;13.60;99.90;;;;;;5074749;28;19958;-67
2022/10/10 04:02:07;;;;;;;;;;;13.60;99.90;;;;;;5074996;28;20446;-66
2022/10/10 04:04:32;;;;;;;;;;;13.60;99.90;;;;;;5074807;28;20297;-66
2022/10/10 04:06:58;;;;;;;;;;;13.50;99.90;;;;;;5075322;28;20007;-66
2022/10/10 04:09:24;;;;;;;;;;;13.50;99.90;;;;;;5074919;28;19910;-67
2022/10/10 04:11:49;;;;;;;;;;;13.50;99.90;;;;;;5074488;28;20302;-67
2022/10/10 04:14:15;;;;;;;;;;;13.50;99.90;;;;;;5074747;28;19929;-67
2022/10/10 04:16:40;;;;;;;;;;;13.50;99.90;;;;;;5074451;28;20359;-67
2022/10/10 04:19:06;;;;;;;;;;;13.40;99.90;;;;;;5074612;28;20275;-67
2022/10/10 04:21:31;;;;;;;;;;;13.40;99.90;;;;;;5074762;28;19994;-67
2022/10/10 04:23:57;;;;;;;;;;;13.40;99.90;;;;;;5074634;28;19939;-67
2022/10/10 04:26:22;;;;;;;;;;;13.40;99.90;;;;;;5074790;28;19911;-67
2022/10/10 04:28:48;;;;;;;;;;;13.40;99.90;;;;;;5074141;28;19905;-67
2022/10/10 04:31:14;;;;;;;;;;;13.50;99.90;;;;;;5074563;28;19905;-67
2022/10/10 04:33:39;;;;;;;;;;;13.50;99.90;;;;;;5074306;28;19931;-67
2022/10/10 04:36:05;;;;;;;;;;;13.40;99.90;;;;;;5074395;28;19963;-67
2022/10/10 04:38:30;;;;;;;;;;;13.30;99.90;;;;;;5074274;28;20400;-67
2022/10/10 04:40:56;;;;;;;;;;;13.30;99.90;;;;;;5073992;28;19912;-66
2022/10/10 04:43:22;;;;;;;;;;;13.30;99.90;;;;;;5074237;28;19914;-67
2022/10/10 04:45:47;;;;;;;;;;;13.20;99.90;;;;;;5073892;28;19909;-67
2022/10/10 04:48:13;;;;;;;;;;;13.20;99.90;;;;;;5074041;28;19905;-67
2022/10/10 04:50:39;;;;;;;;;;;13.20;99.90;;;;;;5074004;28;19911;-67
2022/10/10 04:53:05;;;;;;;;;;;13.20;99.90;;;;;;5074368;28;19943;-67
2022/10/10 04:55:30;;;;;;;;;;;13.10;99.90;;;;;;5073782;28;19911;-67
2022/10/10 04:57:56;;;;;;;;;;;13.10;99.90;;;;;;5073089;28;20032;-66
2022/10/10 05:00:21;;;;;;;;;;;13.20;99.90;;;;;;5074278;28;19904;-67
2022/10/10 05:02:47;;;;;;;;;;;13.10;99.90;;;;;;5073768;28;19904;-67
2022/10/10 05:05:13;;;;;;;;;;;13.10;99.90;;;;;;5073767;28;20260;-67
2022/10/10 05:07:38;;;;;;;;;;;13.00;99.90;;;;;;5073898;28;19911;-67
2022/10/10 05:10:05;;;;;;;;;;;13.10;99.90;;;;;;5073364;28;19911;-66
2022/10/10 05:12:31;;;;;;;;;;;13.10;99.90;;;;;;5073587;28;19997;-67
2022/10/10 05:14:56;;;;;;;;;;;13.10;99.90;;;;;;5073681;28;19963;-66
2022/10/10 05:17:22;;;;;;;;;;;13.00;99.90;;;;;;5073270;28;19920;-67
2022/10/10 05:19:48;;;;;;;;;;;13.00;99.90;;;;;;5073516;28;19908;-67
2022/10/10 05:22:13;;;;;;;;;;;13.00;99.90;;;;;;5073677;28;20340;-67
2022/10/10 05:24:39;;;;;;;;;;;13.10;99.90;;;;;;5072962;28;20335;-66
2022/10/10 05:27:05;;;;;;;;;;;13.30;99.90;;;;;;5073411;28;19957;-67
2022/10/10 05:29:30;;;;;;;;;;;13.30;99.90;;;;;;5073378;28;20255;-67
2022/10/10 05:31:56;;;;;;;;;;;13.50;99.90;;;;;;5073281;28;20417;-67
2022/10/10 05:34:21;;;;;;;;;;;13.40;99.90;;;;;;5073356;28;20362;-66
2022/10/10 05:36:47;;;;;;;;;;;13.50;99.90;;;;;;5073352;28;19904;-66
2022/10/10 05:39:12;;;;;;;;;;;13.50;99.90;;;;;;5072847;28;19912;-67
2022/10/10 05:41:38;;;;;;;;;;;13.50;99.90;;;;;;5072917;28;19905;-67
2022/10/10 05:44:03;;;;;;;;;;;13.40;99.90;;;;;;5072743;28;20422;-67
2022/10/10 05:46:29;;;;;;;;;;;13.50;99.90;;;;;;5072998;28;19931;-67
2022/10/10 05:48:54;;;;;;;;;;;13.60;99.90;;;;;;5072623;28;19908;-67
2022/10/10 05:51:20;;;;;;;;;;;13.80;99.90;;;;;;5072522;28;19904;-67
2022/10/10 05:53:46;;;;;;;;;;;13.80;99.90;;;;;;5071924;28;19911;-67
2022/10/10 05:56:14;;;;;;;;;;;13.80;99.90;;;;;;5072916;28;19912;-67
2022/10/10 05:58:39;;;;;;;;;;;13.80;99.90;;;;;;5073038;28;20294;-67
2022/10/10 06:01:05;;;;;;;;;;;13.80;99.90;;;;;;5073013;28;19904;-67
2022/10/10 06:03:31;;;;;;;;;;;13.80;99.90;;;;;;5072596;28;19905;-67
2022/10/10 06:05:57;;;;;;;;;;;13.80;99.90;;;;;;5072631;28;19904;-67
2022/10/10 06:08:24;;;;;;;;;;;13.80;99.90;;;;;;5071962;28;19988;-67
2022/10/10 06:10:50;;;;;;;;;;;13.90;99.90;;;;;;5072573;28;19908;-67
2022/10/10 06:13:16;;;;;;;;;;;14.00;99.90;;;;;;5072565;28;20267;-67
2022/10/10 06:15:42;;;;;;;;;;;14.00;99.90;;;;;;5073060;28;19948;-67
2022/10/10 06:18:07;;;;;;;;;;;14.00;99.90;;;;;;5072226;28;20413;-67
2022/10/10 06:20:34;;;;;;;;;;;14.00;99.90;;;;;;5072413;28;19916;-67
2022/10/10 06:23:00;;;;;;;;;;;14.00;99.90;;;;;;5072247;28;19939;-67
2022/10/10 06:25:25;;;;;;;;;;;14.10;99.90;;;;;;5072448;28;19908;-67
2022/10/10 06:27:51;;;;;;;;;;;14.10;99.90;;;;;;5072573;28;20381;-67
2022/10/10 06:30:16;;;;;;;;;;;14.10;99.90;;;;;;5072768;28;20397;-67
2022/10/10 06:32:42;;;;;;;;;;;14.20;99.90;;;;;;5072182;28;20281;-67
2022/10/10 06:35:08;;;;;;;;;;;14.20;99.90;;;;;;5072470;28;20009;-67
2022/10/10 06:37:33;;;;;;;;;;;14.30;99.90;;;;;;5071973;28;20410;-67
2022/10/10 06:39:59;;;;;;;;;;;14.30;99.90;;;;;;5072374;28;19904;-67
2022/10/10 06:42:24;;;;;;;;;;;14.30;99.90;;;;;;5072541;28;19904;-67
2022/10/10 06:44:50;;;;;;;;;;;14.40;99.90;;;;;;5072152;28;19908;-67
2022/10/10 06:47:16;;;;;;;;;;;14.40;99.90;;;;;;5072875;28;19905;-67
2022/10/10 06:49:41;;;;;;;;;;;14.40;99.90;;;;;;5072219;28;19904;-67
2022/10/10 06:52:07;;;;;;;;;;;14.40;99.90;;;;;;5071788;28;20459;-67
2022/10/10 06:54:32;;;;;;;;;;;14.50;99.90;;;;;;5072246;28;19904;-67
2022/10/10 06:56:58;;;;;;;;;;;14.50;99.90;;;;;;5072302;28;19957;-67
2022/10/10 06:59:23;;;;;;;;;;;14.60;99.90;;;;;;5072137;28;19912;-67
2022/10/10 07:01:49;;;;;;;;;;;14.60;99.90;;;;;;5072705;28;19905;-67
2022/10/10 07:04:15;;;;;;;;;;;14.60;99.90;;;;;;5071956;28;19904;-67
2022/10/10 07:06:40;;;;;;;;;;;14.60;99.90;;;;;;5071597;28;19905;-67
2022/10/10 07:09:06;;;;;;;;;;;14.70;99.90;;;;;;5072136;28;19910;-67
2022/10/10 07:11:31;;;;;;;;;;;14.80;99.90;;;;;;5072376;28;19919;-67
2022/10/10 07:13:57;;;;;;;;;;;14.80;99.90;;;;;;5071483;28;19904;-67
2022/10/10 07:16:23;;;;;;;;;;;14.90;99.90;;;;;;5072338;28;19950;-66
2022/10/10 07:18:48;;;;;;;;;;;14.90;99.90;;;;;;5071776;28;19959;-67
2022/10/10 07:21:14;;;;;;;;;;;14.90;99.90;;;;;;5075634;28;19904;-66
2022/10/10 07:23:40;;;;;;;;;;;15.00;99.90;;;;;;5075723;28;19948;-66
2022/10/10 07:26:07;;;;;;;;;;;15.10;99.90;;;;;;5075760;28;20355;-67
2022/10/10 07:28:33;;;;;;;;;;;15.20;99.90;;;;;;5075611;28;20367;-66
2022/10/10 07:31:06;;;;;;;;;;;15.30;99.90;;;;;;5075676;28;19905;-66
2022/10/10 07:33:33;;;;;;;;;;;15.30;99.90;;;;;;5076128;28;19910;-67
2022/10/10 07:35:58;;;;;;;;;;;15.40;99.90;;;;;;5075444;28;19911;-65
2022/10/10 07:38:25;;;;;;;;;;;15.40;99.90;;;;;;5076207;28;19912;-66
2022/10/10 07:40:50;;;;;;;;;;;15.40;99.90;;;;;;5075485;28;19958;-66
2022/10/10 07:43:16;;;;;;;;;;;15.50;99.90;;;;;;5075413;28;20281;-66
2022/10/10 07:45:41;;;;;;;;;;;15.60;99.90;;;;;;5075582;28;20427;-66
2022/10/10 07:48:07;;;;;;;;;;;15.50;99.90;;;;;;5075354;28;19928;-65
2022/10/10 07:50:33;;;;;;;;;;;15.60;99.90;;;;;;5074977;28;19904;-67
2022/10/10 07:52:58;;;;;;;;;;;15.70;99.90;;;;;;5075759;28;20270;-66
2022/10/10 07:55:24;;;;;;;;;;;15.70;99.90;;;;;;5075005;28;19908;-67
2022/10/10 07:57:50;;;;;;;;;;;15.70;99.90;;;;;;5075121;28;19916;-66
2022/10/10 08:00:15;;;;;;;;;;;15.90;99.90;;;;;;5075393;28;19905;-65
2022/10/10 08:02:41;;;;;;;;;;;16.10;99.90;;;;;;5074932;28;19911;-66
2022/10/10 08:05:07;;;;;;;;;;;16.30;99.90;;;;;;5074829;28;19999;-66
2022/10/10 08:07:33;;;;;;;;;;;16.30;99.90;;;;;;5074869;28;19912;-67
2022/10/10 08:09:58;;;;;;;;;;;16.40;99.90;;;;;;5074907;28;20358;-66
2022/10/10 08:12:24;;;;;;;;;;;16.50;99.90;;;;;;5074828;28;19947;-66
2022/10/10 08:14:50;;;;;;;;;;;16.60;99.90;;;;;;5074793;28;19915;-67
2022/10/10 08:17:15;;;;;;;;;;;16.60;99.90;;;;;;5074664;28;19920;-66
2022/10/10 08:19:41;;;;;;;;;;;16.60;99.90;;;;;;5074287;28;20374;-66
2022/10/10 08:22:06;;;;;;;;;;;16.70;99.90;;;;;;5074612;28;19908;-66
2022/10/10 08:24:32;;;;;;;;;;;16.70;99.90;;;;;;5075089;28;19909;-67
2022/10/10 08:26:57;;;;;;;;;;;16.70;99.90;;;;;;5074586;28;19911;-66
2022/10/10 08:29:23;;;;;;;;;;;16.70;99.90;;;;;;5074573;28;20370;-66
2022/10/10 08:31:49;;;;;;;;;;;16.70;99.90;;;;;;5073431;28;19911;-66
2022/10/10 08:34:14;;;;;;;;;;;16.80;99.90;;;;;;5074438;28;19905;-66
2022/10/10 08:36:40;;;;;;;;;;;17.00;99.90;;;;;;5074261;28;19944;-66
2022/10/10 08:39:06;;;;;;;;;;;17.50;99.90;;;;;;5074413;28;19912;-66
2022/10/10 08:41:44;;;;;;;;;;;18.30;99.90;;;;;;5074486;28;20473;-67
2022/10/10 08:44:29;;;;;;;;;;;18.90;99.90;;;;;;5074171;28;20392;-67
2022/10/10 08:46:57;;;;;;;;;;;18.50;99.90;;;;;;5074070;28;19931;-66
2022/10/10 08:49:24;;;;;;;;;;;18.40;99.90;;;;;;5074342;28;20362;-66
2022/10/10 08:51:59;;;;;;;;;;;18.20;99.90;;;;;;5074199;28;19911;-67
2022/10/10 08:54:25;;;;;;;;;;;18.20;99.90;;;;;;5073915;28;19912;-66
2022/10/10 08:56:53;;;;;;;;;;;18.10;99.90;;;;;;5073910;28;19919;-66
2022/10/10 08:59:21;;;;;;;;;;;18.00;99.90;;;;;;5074205;28;19913;-66
2022/10/10 09:01:48;;;;;;;;;;;17.80;99.90;;;;;;5074218;28;19905;-66
2022/10/10 09:04:15;;;;;;;;;;;17.80;99.90;;;;;;5073471;28;19904;-64
2022/10/10 09:06:56;;;;;;;;;;;17.80;99.90;;;;;;5073619;28;19930;-66
2022/10/10 09:09:22;;;;;;;;;;;17.70;99.90;;;;;;5073716;28;20374;-66
2022/10/10 09:11:55;;;;;;;;;;;17.60;99.90;;;;;;5074075;28;19908;-66
2022/10/10 09:14:28;;;;;;;;;;;17.60;99.90;;;;;;5073460;28;19908;-65
2022/10/10 09:16:58;;;;;;;;;;;17.60;99.90;;;;;;5073230;28;19947;-66
2022/10/10 09:19:38;;;;;;;;;;;17.50;99.90;;;;;;5073515;28;19958;-66
2022/10/10 09:22:09;;;;;;;;;;;17.60;99.90;;;;;;5073873;28;20359;-66
2022/10/10 09:24:38;;;;;;;;;;;17.60;99.90;;;;;;5073419;28;19985;-67
2022/10/10 09:27:04;;;;;;;;;;;17.40;99.90;;;;;;5073445;28;19998;-66
2022/10/10 09:29:50;;;;;;;;;;;17.50;99.90;;;;;;5073318;28;19911;-67
2022/10/10 09:32:24;;;;;;;;;;;17.50;99.90;;;;;;5072359;28;20417;-66
2022/10/10 09:34:53;;;;;;;;;;;17.60;99.90;;;;;;5073008;28;19905;-67
2022/10/10 09:37:23;;;;;;;;;;;17.60;99.90;;;;;;5073247;28;19908;-66
2022/10/10 09:39:52;;;;;;;;;;;17.70;99.90;;;;;;5073254;28;19916;-66
2022/10/10 09:42:21;;;;;;;;;;;17.70;99.90;;;;;;5073518;28;19908;-66
2022/10/10 09:44:46;;;;;;;;;;;17.80;99.90;;;;;;5072616;28;20287;-66
2022/10/10 09:47:14;;;;;;;;;;;17.80;99.90;;;;;;5072593;28;19916;-67
2022/10/10 09:49:40;;;;;;;;;;;17.80;99.90;;;;;;5073037;28;19923;-67
2022/10/10 09:52:20;;;;;;;;;;;17.80;99.90;;;;;;5073086;28;20385;-66
2022/10/10 09:54:48;;;;;;;;;;;17.80;99.90;;;;;;5073006;28;19911;-66
2022/10/10 09:57:14;;;;;;;;;;;17.70;99.90;;;;;;5072664;28;19905;-67
2022/10/10 09:59:42;;;;;;;;;;;17.70;99.90;;;;;;5072548;28;19912;-66
2022/10/10 10:02:19;;;;;;;;;;;17.70;99.90;;;;;;5072458;28;20322;-66
2022/10/10 10:04:46;;;;;;;;;;;17.70;99.90;;;;;;5072805;28;19904;-66
2022/10/10 10:07:37;;;;;;;;;;;17.80;99.90;;;;;;5072854;28;19905;-66
2022/10/10 10:10:15;;;;;;;;;;;17.80;99.90;;;;;;5068248;28;20224;-64
2022/10/10 10:12:41;;;;;;;;;;;17.90;99.90;;;;;;5072376;28;19904;-65
2022/10/10 10:15:19;;;;;;;;;;;18.00;99.90;;;;;;5072119;28;19904;-65
2022/10/10 10:17:45;;;;;;;;;;;18.00;99.90;;;;;;5072372;28;20321;-67
2022/10/10 10:20:28;;;;;;;;;;;18.00;99.90;;;;;;5071912;28;19908;-68
2022/10/10 10:22:54;;;;;;;;;;;18.10;99.90;;;;;;5072319;28;20370;-67
2022/10/10 10:25:28;;;;;;;;;;;17.90;99.90;;;;;;5072209;28;19991;-65
2022/10/10 10:28:26;;;;;;;;;;;18.00;99.90;;;;;;5071871;28;20289;-65
2022/10/10 10:30:53;;;;;;;;;;;18.20;99.90;;;;;;5009386;28;19980;-66
2022/10/10 10:33:18;;;;;;;;;;;18.30;99.90;;;;;;5010144;28;20307;-64
2022/10/10 10:35:46;;;;;;;;;;;18.50;99.90;;;;;;5010278;28;19909;-65
2022/10/10 10:38:14;;;;;;;;;;;18.50;99.90;;;;;;5010448;28;19971;-65
2022/10/10 10:40:59;;;;;;;;;;;18.70;99.90;;;;;;5009895;28;20044;-64
2022/10/10 10:43:33;;;;;;;;;;;18.80;99.90;;;;;;5009883;28;19905;-66
2022/10/10 10:46:34;;;;;;;;;;;18.60;99.90;;;;;;5009819;28;19909;-65
2022/10/10 10:49:02;;;;;;;;;;;18.60;99.90;;;;;;4951973;29;20021;-64
2022/10/10 10:51:30;;;;;;;;;;;18.80;99.90;;;;;;4951610;29;20273;-66
2022/10/10 10:54:02;;;;;;;;;;;18.80;99.90;;;;;;4951576;28;19957;-64
2022/10/10 10:56:42;;;;;;;;;;;19.00;99.90;;;;;;4955839;29;19920;-65
2022/10/10 10:59:26;;;;;;;;;;;19.10;99.90;;;;;;4955453;29;19942;-64
2022/10/10 11:01:59;;;;;;;;;;;19.20;99.90;;;;;;4955728;29;20276;-65
2022/10/10 11:04:41;;;;;;;;;;;19.20;99.90;;;;;;4955376;29;19914;-63
2022/10/10 11:07:23;;;;;;;;;;;19.40;99.90;;;;;;4985333;28;19912;-64
2022/10/10 11:09:54;;;;;;;;;;;19.50;99.90;;;;;;4994101;28;19960;-64
2022/10/10 11:12:26;;;;;;;;;;;19.30;99.90;;;;;;5008819;28;20375;-64
2022/10/10 11:15:00;;;;;;;;;;;19.40;99.90;;;;;;5013560;28;19963;-64
2022/10/10 11:17:44;;;;;;;;;;;19.50;99.90;;;;;;5013002;28;19918;-64
2022/10/10 11:20:15;;;;;;;;;;;19.40;99.90;;;;;;5013461;28;19905;-64
2022/10/10 11:22:45;;;;;;;;;;;19.30;99.90;;;;;;5029019;28;19905;-65
2022/10/10 11:25:18;;;;;;;;;;;19.50;99.90;;;;;;5055271;28;19904;-64
2022/10/10 11:27:50;;;;;;;;;;;19.70;99.90;;;;;;5053974;28;20336;-64
2022/10/10 11:30:23;;;;;;;;;;;19.80;99.90;;;;;;5055169;28;19904;-63
2022/10/10 11:32:52;;;;;;;;;;;20.10;99.90;;;;;;5055114;28;19909;-64
2022/10/10 11:35:41;;;;;;;;;;;20.50;99.90;;;;;;5055719;28;20260;-65
2022/10/10 11:38:26;;;;;;;;;;;20.50;99.90;;;;;;5049345;28;19999;-64
2022/10/10 11:40:54;;;;;;;;;;;20.70;99.90;;;;;;5054749;28;20375;-65
2022/10/10 11:43:48;;;;;;;;;;;20.60;99.90;;;;;;5054437;28;19911;-64
2022/10/10 11:46:14;;;;;;;;;;;20.50;99.90;;;;;;5061412;28;19908;-66
2022/10/10 11:48:51;;;;;;;;;;;20.30;99.90;;;;;;5075341;28;20302;-65
2022/10/10 11:51:35;;;;;;;;;;;20.10;99.90;;;;;;5074752;28;20423;-66
2022/10/10 11:54:03;;;;;;;;;;;19.90;99.90;;;;;;5074067;28;19931;-64
2022/10/10 11:56:32;;;;;;;;;;;19.90;99.90;;;;;;5074549;28;19912;-66
2022/10/10 11:59:05;;;;;;;;;;;19.80;99.90;;;;;;5074217;28;20362;-66
2022/10/10 12:01:39;;;;;;;;;;;19.80;99.90;;;;;;5074832;28;20386;-65
2022/10/10 12:04:05;;;;;;;;;;;19.60;99.90;;;;;;5074560;28;19957;-66
2022/10/10 12:06:39;;;;;;;;;;;19.60;99.90;;;;;;5073886;28;19991;-66
2022/10/10 12:09:20;;;;;;;;;;;19.80;99.90;;;;;;5074471;28;19904;-66
2022/10/10 12:11:52;;;;;;;;;;;19.80;99.90;;;;;;5073962;28;19912;-66
2022/10/10 12:14:19;;;;;;;;;;;19.80;99.90;;;;;;5074505;28;20321;-66
2022/10/10 12:16:45;;;;;;;;;;;19.80;99.90;;;;;;5074215;28;20011;-66
2022/10/10 12:19:18;;;;;;;;;;;19.90;99.90;;;;;;5074775;28;20011;-66
2022/10/10 12:21:53;;;;;;;;;;;19.90;99.90;;;;;;5074372;28;19904;-65
2022/10/10 12:24:19;;;;;;;;;;;19.80;99.90;;;;;;5074218;28;19908;-66
2022/10/10 12:26:53;;;;;;;;;;;20.10;99.90;;;;;;5073880;28;20542;-65
2022/10/10 12:29:37;;;;;;;;;;;20.10;99.90;;;;;;5074318;28;19930;-65
2022/10/10 12:32:12;;;;;;;;;;;20.30;99.90;;;;;;5074586;28;20336;-66
2022/10/10 12:34:46;;;;;;;;;;;20.30;99.90;;;;;;5074121;28;19912;-66
2022/10/10 12:37:21;;;;;;;;;;;20.30;99.90;;;;;;5074323;28;19912;-65
2022/10/10 12:40:01;;;;;;;;;;;20.50;99.90;;;;;;5074065;28;19912;-66
2022/10/10 12:42:29;;;;;;;;;;;20.50;99.90;;;;;;5074305;28;19911;-65
2022/10/10 12:44:54;;;;;;;;;;;20.70;99.90;;;;;;5073837;28;19904;-66
2022/10/10 12:47:26;;;;;;;;;;;20.60;99.90;;;;;;5074326;28;19977;-65
2022/10/10 12:49:53;;;;;;;;;;;20.50;99.90;;;;;;5074091;28;20003;-65
2022/10/10 12:52:20;;;;;;;;;;;20.50;99.90;;;;;;5074089;28;19911;-66
2022/10/10 12:54:46;;;;;;;;;;;20.60;99.90;;;;;;5074055;28;19905;-66
2022/10/10 12:57:15;;;;;;;;;;;20.50;99.90;;;;;;5073903;28;19915;-66
2022/10/10 12:59:41;;;;;;;;;;;20.50;99.90;;;;;;5074109;28;19965;-66
2022/10/10 13:02:26;;;;;;;;;;;20.50;99.90;;;;;;5073902;28;20324;-66
2022/10/10 13:05:01;;;;;;;;;;;20.40;99.90;;;;;;5073678;28;20078;-66
2022/10/10 13:07:27;;;;;;;;;;;20.20;99.90;;;;;;5073634;28;19973;-65
2022/10/10 13:09:53;;;;;;;;;;;20.20;99.90;;;;;;5073279;28;19987;-66
2022/10/10 13:12:21;;;;;;;;;;;20.30;99.90;;;;;;5073566;28;20287;-66
2022/10/10 13:14:47;;;;;;;;;;;20.30;99.90;;;;;;5073638;28;19905;-66
2022/10/10 13:17:22;;;;;;;;;;;20.20;99.90;;;;;;5072917;28;19970;-65
2022/10/10 13:19:48;;;;;;;;;;;20.00;99.90;;;;;;5073320;28;19999;-65
2022/10/10 13:22:14;;;;;;;;;;;20.10;99.90;;;;;;5073660;28;20386;-64
2022/10/10 13:24:40;;;;;;;;;;;20.20;99.90;;;;;;5072803;28;20263;-65
2022/10/10 13:27:13;;;;;;;;;;;20.00;99.90;;;;;;5073197;28;20355;-65
2022/10/10 13:29:39;;;;;;;;;;;20.00;99.90;;;;;;5073344;28;19909;-65
2022/10/10 13:32:06;;;;;;;;;;;19.90;99.90;;;;;;5073572;28;19904;-65
2022/10/10 13:34:34;;;;;;;;;;;19.90;99.90;;;;;;5071920;28;20352;-65
2022/10/10 13:37:01;;;;;;;;;;;19.90;99.90;;;;;;5073196;28;19977;-66
2022/10/10 13:39:27;;;;;;;;;;;20.00;99.90;;;;;;5072750;28;19912;-66
2022/10/10 13:41:53;;;;;;;;;;;20.00;99.90;;;;;;5073056;28;19904;-66
2022/10/10 13:44:42;;;;;;;;;;;20.10;99.90;;;;;;5072770;28;19995;-65
2022/10/10 13:47:26;;;;;;;;;;;20.30;99.90;;;;;;5064943;28;19940;-65
2022/10/10 13:49:53;;;;;;;;;;;20.40;99.90;;;;;;5072690;28;19920;-65
2022/10/10 13:52:20;;;;;;;;;;;20.60;99.90;;;;;;5072400;28;19908;-66
2022/10/10 13:54:46;;;;;;;;;;;20.70;99.90;;;;;;5072784;28;19912;-66
2022/10/10 13:57:15;;;;;;;;;;;20.70;99.90;;;;;;5073202;28;19999;-66
2022/10/10 13:59:41;;;;;;;;;;;20.80;99.90;;;;;;5072760;28;20337;-66
2022/10/10 14:02:12;;;;;;;;;;;20.70;99.90;;;;;;5072924;28;20274;-66
2022/10/10 14:04:43;;;;;;;;;;;20.90;99.90;;;;;;5072739;28;19904;-65
2022/10/10 14:07:11;;;;;;;;;;;20.80;99.90;;;;;;5072614;28;19970;-66
2022/10/10 14:09:37;;;;;;;;;;;20.80;99.90;;;;;;5072996;28;19904;-66
2022/10/10 14:12:05;;;;;;;;;;;20.80;99.90;;;;;;5072689;28;19904;-65
2022/10/10 14:14:32;;;;;;;;;;;20.60;99.90;;;;;;5072758;28;19904;-66
2022/10/10 14:16:59;;;;;;;;;;;20.80;99.90;;;;;;5072373;28;19920;-65
2022/10/10 14:19:25;;;;;;;;;;;20.80;99.90;;;;;;5072276;28;19919;-65
2022/10/10 14:21:51;;;;;;;;;;;20.90;99.90;;;;;;5072196;28;19904;-65
2022/10/10 14:24:16;;;;;;;;;;;20.90;99.90;;;;;;5072800;28;19996;-65